Long Lake, Indiana
Current Conditions -  °F | °C
As of 11:15 PM on Saturday 25 Oct 2014 (Local Time) from KANQ Reporting Station
Clear Clear  
Wind Chill: 12°   Ceiling: Unl
Heat Index: 12°   Visibility: 10mi
Dew Point:   Wind: 5mph
Humidity: 51%   Direction: 300°WNW
Pressure: 29.89"   Gusts: NA
Location:  41.7284°N, 84.9169°W
Report Text: KANQ 260315Z AUTO 30004KT 10SM CLR 12/02 A2989 RMK
Loading
Personal Weather Stations






























Interactive Weather Map
Tropical Storm Tracking
New forecast layout! Learn more

10-Day Weather Forecast

Advertisements
Track Severe Weather on mobile